createdAt,value
2019-06-13T00:01:01.880Z,1008.14
2019-06-13T00:02:01.904Z,1008.12
2019-06-13T00:03:01.927Z,1008.15
2019-06-13T00:04:01.950Z,1008.12
2019-06-13T00:05:01.975Z,1008.19
2019-06-13T00:06:01.998Z,1008.17
2019-06-13T00:07:02.021Z,1008.18
2019-06-13T00:08:02.058Z,1008.15
2019-06-13T00:09:02.068Z,1008.13
2019-06-13T00:10:02.093Z,1008.16
2019-06-13T00:11:02.120Z,1008.11
2019-06-13T00:12:02.139Z,1008.13
2019-06-13T00:13:02.163Z,1008.1
2019-06-13T00:14:02.185Z,1008.04
2019-06-13T00:15:02.209Z,1008.04
2019-06-13T00:17:02.256Z,1008.04
2019-06-13T00:18:02.278Z,1008
2019-06-13T00:19:02.306Z,1007.98
2019-06-13T00:20:02.327Z,1008.02
2019-06-13T00:21:02.350Z,1008.01
2019-06-13T00:22:02.374Z,1008.07
2019-06-13T00:23:02.398Z,1008.13
2019-06-13T00:24:02.425Z,1008.19
2019-06-13T00:25:02.450Z,1008.27
2019-06-13T00:26:02.469Z,1008.32
2019-06-13T00:27:02.492Z,1008.35
2019-06-13T00:28:02.515Z,1008.35
2019-06-13T00:29:02.538Z,1008.36
2019-06-13T00:30:02.562Z,1008.39
2019-06-13T00:31:02.585Z,1008.39
2019-06-13T00:33:02.631Z,1008.42
2019-06-13T00:34:03.744Z,1008.4
2019-06-13T00:35:02.678Z,1008.48
2019-06-13T00:36:06.759Z,1008.47
2019-06-13T00:37:02.726Z,1008.47
2019-06-13T00:38:02.767Z,1008.45
2019-06-13T00:39:02.773Z,1008.46
2019-06-13T00:40:02.796Z,1008.43
2019-06-13T00:41:02.828Z,1008.4
2019-06-13T00:42:02.843Z,1008.39
2019-06-13T00:43:02.865Z,1008.38
2019-06-13T00:44:02.889Z,1008.38
2019-06-13T00:45:02.913Z,1008.38
2019-06-13T00:46:02.937Z,1008.39
2019-06-13T00:48:02.986Z,1008.45
2019-06-13T00:49:03.007Z,1008.43
2019-06-13T00:50:03.030Z,1008.47
2019-06-13T00:51:03.055Z,1008.45
2019-06-13T00:52:03.078Z,1008.42
2019-06-13T00:53:03.100Z,1008.41
2019-06-13T00:54:03.124Z,1008.39
2019-06-13T00:55:03.148Z,1008.38
2019-06-13T00:56:03.171Z,1008.42
2019-06-13T00:57:03.194Z,1008.44
2019-06-13T00:58:03.219Z,1008.42
2019-06-13T00:59:03.242Z,1008.43
2019-06-13T01:00:09.802Z,1008.44
2019-06-13T01:01:03.288Z,1008.42
2019-06-13T01:02:03.312Z,1008.46
2019-06-13T01:03:03.334Z,1008.46
2019-06-13T01:04:03.358Z,1008.46
2019-06-13T01:05:03.381Z,1008.51
2019-06-13T01:06:18.155Z,1008.5
2019-06-13T01:07:03.427Z,1008.48
2019-06-13T01:08:03.450Z,1008.39
2019-06-13T01:09:03.482Z,1008.35
2019-06-13T01:10:03.498Z,1008.29
2019-06-13T01:11:03.522Z,1008.27
2019-06-13T01:12:03.546Z,1008.28
2019-06-13T01:13:03.567Z,1008.29
2019-06-13T01:14:03.591Z,1008.37
2019-06-13T01:15:03.620Z,1008.38
2019-06-13T01:16:03.648Z,1008.38
2019-06-13T01:17:03.663Z,1008.39
2019-06-13T01:18:03.683Z,1008.37
2019-06-13T01:20:03.759Z,1008.45
2019-06-13T01:21:03.769Z,1008.4
2019-06-13T01:22:03.777Z,1008.44
2019-06-13T01:23:03.800Z,1008.49
2019-06-13T01:24:03.823Z,1008.52
2019-06-13T01:25:03.849Z,1008.57
2019-06-13T01:26:03.869Z,1008.58
2019-06-13T01:27:03.893Z,1008.56
2019-06-13T01:28:03.916Z,1008.54
2019-06-13T01:29:03.966Z,1008.53
2019-06-13T01:30:03.962Z,1008.57
2019-06-13T01:31:03.994Z,1008.6
2019-06-13T01:32:04.009Z,1008.64
2019-06-13T01:33:04.032Z,1008.65
2019-06-13T01:34:04.056Z,1008.67
2019-06-13T01:36:04.107Z,1008.61
2019-06-13T01:37:04.124Z,1008.6
2019-06-13T01:38:04.148Z,1008.56
2019-06-13T01:39:04.174Z,1008.51
2019-06-13T01:40:04.194Z,1008.52
2019-06-13T01:41:04.218Z,1008.5
2019-06-13T01:42:04.242Z,1008.45
2019-06-13T01:43:04.265Z,1008.38
2019-06-13T01:44:04.288Z,1008.37
2019-06-13T01:45:04.313Z,1008.36
2019-06-13T01:46:04.335Z,1008.3
2019-06-13T01:47:04.359Z,1008.27
2019-06-13T01:48:04.421Z,1008.28
2019-06-13T01:49:04.404Z,1008.27
2019-06-13T01:50:04.428Z,1008.21
2019-06-13T01:52:04.473Z,1008.16
2019-06-13T01:53:04.497Z,1008.2
2019-06-13T01:54:04.522Z,1008.17
2019-06-13T01:55:04.543Z,1008.18
2019-06-13T01:56:04.566Z,1008.2
2019-06-13T01:57:04.589Z,1008.19
2019-06-13T01:58:04.612Z,1008.19
2019-06-13T01:59:04.635Z,1008.2
2019-06-13T02:00:04.668Z,1008.14
2019-06-13T02:01:04.682Z,1008.12
2019-06-13T02:02:04.705Z,1008.07
2019-06-13T02:03:04.728Z,1008.03
2019-06-13T02:04:04.752Z,1007.98
2019-06-13T02:05:04.775Z,1007.98
2019-06-13T02:06:04.797Z,1008.02
2019-06-13T02:08:04.844Z,1008.09
2019-06-13T02:09:04.868Z,1008.15
2019-06-13T02:10:04.891Z,1008.13
2019-06-13T02:11:04.913Z,1008.17
2019-06-13T02:12:04.938Z,1008.24
2019-06-13T02:13:04.960Z,1008.29
2019-06-13T02:14:04.983Z,1008.31
2019-06-13T02:15:05.006Z,1008.41
2019-06-13T02:16:05.030Z,1008.42
2019-06-13T02:17:05.053Z,1008.45
2019-06-13T02:18:05.075Z,1008.47
2019-06-13T02:19:05.099Z,1008.53
2019-06-13T02:20:05.127Z,1008.57
2019-06-13T02:21:05.145Z,1008.58
2019-06-13T02:23:05.193Z,1008.63
2019-06-13T02:24:05.215Z,1008.66
2019-06-13T02:25:05.239Z,1008.63
2019-06-13T02:26:05.262Z,1008.62
2019-06-13T02:27:05.285Z,1008.6
2019-06-13T02:28:05.315Z,1008.68
2019-06-13T02:29:05.331Z,1008.75
2019-06-13T02:30:05.356Z,1008.83
2019-06-13T02:31:05.392Z,1008.88
2019-06-13T02:32:15.239Z,1008.89
2019-06-13T02:33:05.423Z,1008.93
2019-06-13T02:34:05.448Z,1008.91
2019-06-13T02:35:05.474Z,1008.92
2019-06-13T02:36:05.500Z,1008.89
2019-06-13T02:37:23.296Z,1008.86
2019-06-13T02:38:05.541Z,1008.86
2019-06-13T02:39:05.567Z,1008.89
2019-06-13T02:40:05.587Z,1009.03
2019-06-13T02:41:05.611Z,1009.11
2019-06-13T02:42:05.632Z,1009.14
2019-06-13T02:43:05.656Z,1009.17
2019-06-13T02:44:05.685Z,1009.17
2019-06-13T02:45:05.703Z,1009.22
2019-06-13T02:46:05.725Z,1009.22
2019-06-13T02:47:05.752Z,1009.2
2019-06-13T02:48:05.771Z,1009.22
2019-06-13T02:49:05.797Z,1009.18
2019-06-13T02:50:05.817Z,1009.18
2019-06-13T02:51:05.843Z,1009.19
2019-06-13T02:52:05.864Z,1009.21
2019-06-13T02:53:05.890Z,1009.23
2019-06-13T02:55:05.935Z,1009.28
2019-06-13T02:56:05.958Z,1009.36
2019-06-13T02:57:05.979Z,1009.39
2019-06-13T02:58:06.005Z,1009.44
2019-06-13T02:59:06.025Z,1009.52
2019-06-13T03:00:09.874Z,1009.49
2019-06-13T03:01:06.072Z,1009.47
2019-06-13T03:02:06.095Z,1009.42
2019-06-13T03:03:06.120Z,1009.42
2019-06-13T03:04:06.143Z,1009.43
2019-06-13T03:05:06.164Z,1009.42
2019-06-13T03:06:06.188Z,1009.41
2019-06-13T03:07:06.211Z,1009.43
2019-06-13T03:08:06.233Z,1009.4
2019-06-13T03:09:06.256Z,1009.41
2019-06-13T03:11:06.303Z,1009.38
2019-06-13T03:12:06.326Z,1009.44
2019-06-13T03:13:06.349Z,1009.47
2019-06-13T03:14:08.981Z,1009.52
2019-06-13T03:15:06.398Z,1009.54
2019-06-13T03:16:09.230Z,1009.56
2019-06-13T03:17:06.441Z,1009.56
2019-06-13T03:18:09.046Z,1009.53
2019-06-13T03:19:09.109Z,1009.5
2019-06-13T03:20:06.511Z,1009.48
2019-06-13T03:21:09.063Z,1009.5
2019-06-13T03:22:06.558Z,1009.56
2019-06-13T03:23:06.579Z,1009.56
2019-06-13T03:24:06.604Z,1009.6
2019-06-13T03:25:08.937Z,1009.58
2019-06-13T03:27:06.672Z,1009.51
2019-06-13T03:28:06.696Z,1009.52
2019-06-13T03:29:06.719Z,1009.56
2019-06-13T03:30:15.078Z,1009.54
2019-06-13T03:31:06.766Z,1009.55
2019-06-13T03:32:06.790Z,1009.5
2019-06-13T03:33:06.812Z,1009.5
2019-06-13T03:34:11.515Z,1009.49
2019-06-13T03:35:08.952Z,1009.55
2019-06-13T03:36:09.309Z,1009.55
2019-06-13T03:37:06.903Z,1009.61
2019-06-13T03:38:09.043Z,1009.65
2019-06-13T03:39:09.773Z,1009.58
2019-06-13T03:40:16.670Z,1009.57
2019-06-13T03:41:09.435Z,1009.58
2019-06-13T03:43:09.041Z,1009.64
2019-06-13T03:44:09.711Z,1009.63
2019-06-13T03:45:09.548Z,1009.68
2019-06-13T03:46:07.113Z,1009.77
2019-06-13T03:47:09.334Z,1009.81
2019-06-13T03:48:09.669Z,1009.87
2019-06-13T03:49:09.494Z,1009.88
2019-06-13T03:50:09.554Z,1009.88
2019-06-13T03:51:07.229Z,1009.88
2019-06-13T03:52:09.212Z,1009.88
2019-06-13T03:53:08.992Z,1009.84
2019-06-13T03:54:09.574Z,1009.82
2019-06-13T03:55:09.041Z,1009.79
2019-06-13T03:56:09.547Z,1009.8
2019-06-13T03:58:07.407Z,1009.7
2019-06-13T03:59:09.074Z,1009.62
2019-06-13T04:00:09.584Z,1009.66
2019-06-13T04:01:15.700Z,1009.57
2019-06-13T04:02:09.138Z,1009.54
2019-06-13T04:03:10.127Z,1009.5
2019-06-13T04:04:09.216Z,1009.44
2019-06-13T04:05:09.771Z,1009.39
2019-06-13T04:06:09.751Z,1009.39
2019-06-13T04:07:09.062Z,1009.43
2019-06-13T04:08:17.597Z,1009.43
2019-06-13T04:09:09.690Z,1009.48
2019-06-13T04:10:09.233Z,1009.65
2019-06-13T04:11:09.091Z,1009.82
2019-06-13T04:12:09.453Z,1009.87
2019-06-13T04:13:09.309Z,1009.88
2019-06-13T04:14:10.170Z,1009.88
2019-06-13T04:15:09.757Z,1009.92
2019-06-13T04:16:10.074Z,1009.92
2019-06-13T04:17:09.221Z,1009.93
2019-06-13T04:18:09.619Z,1009.94
2019-06-13T04:19:09.713Z,1009.94
2019-06-13T04:20:09.372Z,1009.88
2019-06-13T04:21:09.236Z,1009.87
2019-06-13T04:22:09.980Z,1009.88
2019-06-13T04:23:09.591Z,1009.89
2019-06-13T04:24:09.021Z,1009.95
2019-06-13T04:25:09.948Z,1009.98
2019-06-13T04:26:09.805Z,1010.02
2019-06-13T04:27:08.849Z,1010.08
2019-06-13T04:28:09.107Z,1010.13
2019-06-13T04:30:32.391Z,1009.86
2019-06-13T04:31:09.459Z,1010.16
2019-06-13T04:32:09.501Z,1010.19
2019-06-13T04:33:10.170Z,1010.18
2019-06-13T04:34:09.589Z,1010.15
2019-06-13T04:35:10.036Z,1010.18
2019-06-13T04:36:10.002Z,1010.12
2019-06-13T04:37:09.620Z,1010.05
2019-06-13T04:38:10.133Z,1009.94
2019-06-13T04:39:10.472Z,1009.85
2019-06-13T04:40:09.746Z,1009.85
2019-06-13T04:41:10.093Z,1009.88
2019-06-13T04:42:09.664Z,1009.91
2019-06-13T04:43:10.232Z,1010.01
2019-06-13T04:44:09.526Z,1010.04
2019-06-13T04:46:09.730Z,1009.87
2019-06-13T04:47:10.087Z,1010.09
2019-06-13T04:48:09.580Z,1010.15
2019-06-13T04:49:09.958Z,1010.09
2019-06-13T04:50:10.417Z,1009.85
2019-06-13T04:51:09.449Z,1009.73
2019-06-13T04:52:09.521Z,1009.7
2019-06-13T04:53:10.020Z,1009.71
2019-06-13T04:54:09.794Z,1009.7
2019-06-13T04:55:09.305Z,1009.68
2019-06-13T04:56:09.994Z,1009.63
2019-06-13T04:57:09.256Z,1009.58
2019-06-13T04:58:09.953Z,1009.68
2019-06-13T04:59:09.388Z,1009.73
2019-06-13T05:00:11.063Z,1009.84
2019-06-13T05:02:10.323Z,1009.9
2019-06-13T05:03:09.631Z,1009.96
2019-06-13T05:04:10.221Z,1010.02
2019-06-13T05:05:11.168Z,1009.98
2019-06-13T05:06:09.838Z,1009.97
2019-06-13T05:07:10.462Z,1009.94
2019-06-13T05:08:10.143Z,1009.9
2019-06-13T05:09:09.389Z,1009.91
2019-06-13T05:10:12.735Z,1009.89
2019-06-13T05:11:09.472Z,1009.87
2019-06-13T05:12:09.522Z,1009.92
2019-06-13T05:13:10.553Z,1010.02
2019-06-13T05:14:11.603Z,1010.09
2019-06-13T05:15:09.855Z,1010.1
2019-06-13T05:16:10.232Z,1010.12
2019-06-13T05:18:09.834Z,1010.06
2019-06-13T05:19:10.875Z,1010.1
2019-06-13T05:20:10.009Z,1010.12
2019-06-13T05:21:10.860Z,1010.16
2019-06-13T05:22:09.654Z,1010.2
2019-06-13T05:23:09.905Z,1010.18
2019-06-13T05:24:09.787Z,1010.16
2019-06-13T05:25:10.271Z,1010.12
2019-06-13T05:26:09.757Z,1010.08
2019-06-13T05:27:09.907Z,1010.02
2019-06-13T05:28:10.040Z,1010.04
2019-06-13T05:29:09.831Z,1010.1
2019-06-13T05:30:13.989Z,1010.16
2019-06-13T05:31:09.918Z,1010.24
2019-06-13T05:33:13.884Z,1010.25
2019-06-13T05:34:10.239Z,1010.26
2019-06-13T05:35:10.111Z,1010.31
2019-06-13T05:36:10.524Z,1010.27
2019-06-13T05:37:10.039Z,1010.35
2019-06-13T05:38:10.279Z,1010.36
2019-06-13T05:39:16.282Z,1010.41
2019-06-13T05:40:10.429Z,1010.38
2019-06-13T05:41:10.529Z,1010.38
2019-06-13T05:42:10.405Z,1010.33
2019-06-13T05:43:10.928Z,1010.29
2019-06-13T05:44:10.207Z,1010.28
2019-06-13T05:45:10.622Z,1010.23
2019-06-13T05:46:10.394Z,1010.28
2019-06-13T05:47:10.282Z,1010.29
2019-06-13T05:48:11.056Z,1010.31
2019-06-13T05:49:10.344Z,1010.36
2019-06-13T05:50:10.364Z,1010.37
2019-06-13T05:51:10.380Z,1010.39
2019-06-13T05:52:10.508Z,1010.39
2019-06-13T05:53:10.429Z,1010.45
2019-06-13T05:54:10.454Z,1010.52
2019-06-13T05:55:10.587Z,1010.52
2019-06-13T05:56:10.503Z,1010.6
2019-06-13T05:57:10.528Z,1010.61
2019-06-13T05:58:10.903Z,1010.58
2019-06-13T05:59:10.579Z,1010.6
2019-06-13T06:00:10.601Z,1010.66
2019-06-13T06:01:10.742Z,1010.7
2019-06-13T06:02:10.651Z,1010.69
2019-06-13T06:03:10.689Z,1010.69
2019-06-13T06:05:10.960Z,1010.75
2019-06-13T06:06:10.748Z,1010.79
2019-06-13T06:07:10.777Z,1010.82
2019-06-13T06:08:10.797Z,1010.82
2019-06-13T06:09:30.398Z,1010.84
2019-06-13T06:10:10.849Z,1010.85
2019-06-13T06:11:13.268Z,1010.91
2019-06-13T06:12:10.895Z,1010.97
2019-06-13T06:13:10.920Z,1011.05
2019-06-13T06:14:10.943Z,1011.05
2019-06-13T06:15:10.970Z,1011.04
2019-06-13T06:16:10.993Z,1011.07
2019-06-13T06:17:11.030Z,1011.07
2019-06-13T06:18:11.616Z,1011.19
2019-06-13T06:19:11.065Z,1011.21
2019-06-13T06:21:11.639Z,1011.22
2019-06-13T06:22:11.139Z,1011.23
2019-06-13T06:23:16.837Z,1011.27
2019-06-13T06:24:14.761Z,1011.3
2019-06-13T06:25:12.582Z,1011.3
2019-06-13T06:26:11.236Z,1011.3
2019-06-13T06:27:11.261Z,1011.27
2019-06-13T06:28:11.284Z,1011.26
2019-06-13T06:29:11.308Z,1011.21
2019-06-13T06:30:13.554Z,1011.21
2019-06-13T06:31:11.357Z,1011.18
2019-06-13T06:32:11.381Z,1011.11
2019-06-13T06:33:11.685Z,1011.02
2019-06-13T06:34:11.429Z,1011.02
2019-06-13T06:35:11.457Z,1011.02
2019-06-13T06:37:11.507Z,1010.98
2019-06-13T06:38:11.527Z,1010.97
2019-06-13T06:39:11.553Z,1010.98
2019-06-13T06:40:11.575Z,1010.95
2019-06-13T06:41:11.609Z,1010.98
2019-06-13T06:42:11.624Z,1010.98
2019-06-13T06:43:11.647Z,1010.99
2019-06-13T06:44:11.673Z,1011.02
2019-06-13T06:45:11.696Z,1011.16
2019-06-13T06:46:11.720Z,1011.06
2019-06-13T06:47:11.746Z,1010.99
2019-06-13T06:48:11.768Z,1010.97
2019-06-13T06:49:11.794Z,1010.98
2019-06-13T06:50:11.826Z,1010.94
2019-06-13T06:51:11.843Z,1010.94
2019-06-13T06:53:11.893Z,1010.92
2019-06-13T06:54:11.917Z,1010.93
2019-06-13T06:55:11.942Z,1010.98
2019-06-13T06:56:11.965Z,1010.96
2019-06-13T06:57:11.998Z,1010.99
2019-06-13T06:58:12.015Z,1011.01
2019-06-13T06:59:12.038Z,1010.98
2019-06-13T07:00:12.241Z,1010.98
2019-06-13T07:01:12.094Z,1011
2019-06-13T07:02:12.114Z,1010.99
2019-06-13T07:03:12.142Z,1011.02
2019-06-13T07:04:14.446Z,1010.98
2019-06-13T07:05:12.190Z,1011.01
2019-06-13T07:06:12.211Z,1010.98
2019-06-13T07:08:12.261Z,1011.02
2019-06-13T07:09:12.284Z,1011.03
2019-06-13T07:10:17.819Z,1010.98
2019-06-13T07:11:12.334Z,1010.95
2019-06-13T07:12:12.359Z,1010.94
2019-06-13T07:13:12.385Z,1010.96
2019-06-13T07:14:19.826Z,1010.94
2019-06-13T07:15:12.482Z,1010.94
2019-06-13T07:16:12.456Z,1010.96
2019-06-13T07:17:12.483Z,1010.89
2019-06-13T07:18:12.505Z,1010.85
2019-06-13T07:19:12.529Z,1010.8
2019-06-13T07:20:12.563Z,1010.83
2019-06-13T07:21:12.578Z,1010.89
2019-06-13T07:22:12.603Z,1010.94
2019-06-13T07:23:12.627Z,1010.93
2019-06-13T07:24:12.650Z,1010.92
2019-06-13T07:25:12.675Z,1010.92
2019-06-13T07:26:12.700Z,1010.89
2019-06-13T07:27:12.724Z,1010.87
2019-06-13T07:28:12.749Z,1010.88
2019-06-13T07:29:12.773Z,1010.86
2019-06-13T07:30:15.119Z,1010.9
2019-06-13T07:31:12.821Z,1010.91
2019-06-13T07:32:12.846Z,1010.95
2019-06-13T07:33:12.869Z,1010.96
2019-06-13T07:34:12.895Z,1011.02
2019-06-13T07:35:12.918Z,1010.97
2019-06-13T07:36:12.943Z,1010.99
2019-06-13T07:37:12.968Z,1011.04
2019-06-13T07:38:12.991Z,1011.07
2019-06-13T07:40:28.039Z,1011.13
2019-06-13T07:41:13.065Z,1011.13
2019-06-13T07:42:13.089Z,1011.15
2019-06-13T07:43:13.116Z,1011.19
2019-06-13T07:44:14.401Z,1011.22
2019-06-13T07:45:13.164Z,1011.21
2019-06-13T07:46:13.203Z,1011.21
2019-06-13T07:47:13.218Z,1011.21
2019-06-13T07:48:13.238Z,1011.24
2019-06-13T07:49:13.261Z,1011.23
2019-06-13T07:50:13.287Z,1011.22
2019-06-13T07:51:13.323Z,1011.18
2019-06-13T07:52:13.337Z,1011.23
2019-06-13T07:53:13.361Z,1011.18
2019-06-13T07:54:13.386Z,1011.31
2019-06-13T07:56:13.437Z,1011.41
2019-06-13T07:57:13.468Z,1011.93
2019-06-13T07:58:13.487Z,1011.37
2019-06-13T07:59:13.513Z,1011.25
2019-06-13T08:00:13.538Z,1011.18
2019-06-13T08:01:13.564Z,1011.2
2019-06-13T08:02:13.594Z,1011.17
2019-06-13T08:03:13.615Z,1011.27
2019-06-13T08:04:13.641Z,1011.14
2019-06-13T08:05:13.667Z,1011.12
2019-06-13T08:06:13.693Z,1011.17
2019-06-13T08:07:13.719Z,1011.21
2019-06-13T08:08:13.745Z,1011.18
2019-06-13T08:09:13.791Z,1011.21
2019-06-13T08:10:13.798Z,1011.22
2019-06-13T08:12:13.850Z,1011.21
2019-06-13T08:13:13.876Z,1011.23
2019-06-13T08:14:13.903Z,1011.22
2019-06-13T08:15:13.927Z,1011.26
2019-06-13T08:16:25.453Z,1011.26
2019-06-13T08:17:13.979Z,1011.26
2019-06-13T08:18:14.006Z,1011.24
2019-06-13T08:19:14.030Z,1011.23
2019-06-13T08:20:14.056Z,1011.25
2019-06-13T08:21:14.083Z,1011.21
2019-06-13T08:22:14.108Z,1011.17
2019-06-13T08:23:18.524Z,1011.15
2019-06-13T08:24:14.170Z,1011.19
2019-06-13T08:25:14.190Z,1011.17
2019-06-13T08:26:14.211Z,1011.22
2019-06-13T08:28:14.262Z,1011.22
2019-06-13T08:29:14.296Z,1011.19
2019-06-13T08:30:14.313Z,1011.19
2019-06-13T08:31:14.339Z,1011.19
2019-06-13T08:32:14.366Z,1011.17
2019-06-13T08:33:14.390Z,1011.13
2019-06-13T08:34:14.416Z,1011.17
2019-06-13T08:35:14.447Z,1011.16
2019-06-13T08:36:14.468Z,1011.18
2019-06-13T08:37:14.495Z,1011.16
2019-06-13T08:38:14.519Z,1011.17
2019-06-13T08:39:14.545Z,1011.17
2019-06-13T08:40:14.577Z,1011.2
2019-06-13T08:41:20.047Z,1011.23
2019-06-13T08:43:15.866Z,1011.31
2019-06-13T08:44:14.676Z,1011.32
2019-06-13T08:45:14.701Z,1011.37
2019-06-13T08:46:14.737Z,1011.4
2019-06-13T08:47:14.753Z,1011.38
2019-06-13T08:48:14.779Z,1011.4
2019-06-13T08:49:16.517Z,1011.37
2019-06-13T08:50:14.830Z,1011.4
2019-06-13T08:51:14.856Z,1011.44
2019-06-13T08:52:14.882Z,1011.49
2019-06-13T08:53:14.908Z,1011.54
2019-06-13T08:54:14.936Z,1011.46
2019-06-13T08:55:14.976Z,1011.46
2019-06-13T08:56:15.011Z,1011.4
2019-06-13T08:57:15.019Z,1011.4
2019-06-13T08:58:15.040Z,1011.39
2019-06-13T08:59:15.065Z,1011.38
2019-06-13T09:00:15.092Z,1011.4
2019-06-13T09:01:15.124Z,1011.43
2019-06-13T09:02:15.152Z,1011.37
2019-06-13T09:03:15.172Z,1011.42
2019-06-13T09:04:15.198Z,1011.36
2019-06-13T09:05:15.225Z,1011.35
2019-06-13T09:06:15.982Z,1011.32
2019-06-13T09:07:15.277Z,1011.29
2019-06-13T09:08:17.220Z,1011.28
2019-06-13T09:09:15.330Z,1011.31
2019-06-13T09:10:15.356Z,1011.32
2019-06-13T09:11:28.030Z,1011.32
2019-06-13T09:12:15.413Z,1011.29
2019-06-13T09:13:15.436Z,1011.29
2019-06-13T09:15:15.491Z,1011.31
2019-06-13T09:16:15.516Z,1011.29
2019-06-13T09:17:15.542Z,1011.2
2019-06-13T09:18:15.568Z,1011.19
2019-06-13T09:19:15.598Z,1011.15
2019-06-13T09:20:15.624Z,1011.14
2019-06-13T09:21:15.656Z,1011.18
2019-06-13T09:22:15.675Z,1011.16
2019-06-13T09:23:15.702Z,1011.18
2019-06-13T09:24:15.728Z,1011.18
2019-06-13T09:25:15.755Z,1011.16
2019-06-13T09:26:15.783Z,1011.18
2019-06-13T09:27:15.810Z,1011.17
2019-06-13T09:28:15.836Z,1011.21
2019-06-13T09:29:15.864Z,1011.23
2019-06-13T09:31:15.915Z,1011.18
2019-06-13T09:32:15.943Z,1011.17
2019-06-13T09:33:21.585Z,1011.16
2019-06-13T09:34:15.995Z,1011.15
2019-06-13T09:35:16.041Z,1011.15
2019-06-13T09:36:16.048Z,1011.1
2019-06-13T09:37:16.076Z,1011.09
2019-06-13T09:38:16.118Z,1011.06
2019-06-13T09:40:45.261Z,1010.97
2019-06-13T09:42:05.314Z,1010.99
2019-06-13T09:46:25.799Z,1010.82
2019-06-13T09:47:25.826Z,1010.81
2019-06-13T09:48:25.870Z,1010.85
2019-06-13T09:49:25.880Z,1010.86
2019-06-13T09:50:41.719Z,1010.92
2019-06-13T09:51:25.933Z,1010.94
2019-06-13T09:52:25.961Z,1011.06
2019-06-13T09:53:25.987Z,1011.06
2019-06-13T09:54:26.017Z,1011.04
2019-06-13T09:55:26.043Z,1011.02
2019-06-13T09:56:26.072Z,1011.04
2019-06-13T09:57:26.098Z,1010.97
2019-06-13T09:58:26.125Z,1010.99
2019-06-13T10:00:27.967Z,1011.01
2019-06-13T10:01:26.209Z,1011
2019-06-13T10:02:26.237Z,1011
2019-06-13T10:03:26.266Z,1011
2019-06-13T10:04:26.296Z,1010.97
2019-06-13T10:05:26.367Z,1010.96
2019-06-13T10:06:26.351Z,1010.98
2019-06-13T10:07:26.380Z,1010.98
2019-06-13T10:08:30.353Z,1010.94
2019-06-13T10:09:26.438Z,1010.92
2019-06-13T10:10:26.466Z,1010.89
2019-06-13T10:11:26.495Z,1010.9
2019-06-13T10:12:39.940Z,1010.86
2019-06-13T10:15:00.224Z,1010.89
2019-06-13T10:16:01.741Z,1010.89
2019-06-13T10:17:00.047Z,1010.89
2019-06-13T10:18:00.647Z,1010.89
2019-06-13T10:19:00.562Z,1010.9
2019-06-13T10:20:08.272Z,1010.84
2019-06-13T10:20:59.256Z,1010.88
2019-06-13T10:22:01.625Z,1010.88
2019-06-13T10:22:59.405Z,1010.86
2019-06-13T10:23:59.414Z,1010.87
2019-06-13T10:25:05.704Z,1010.9
2019-06-13T10:25:57.543Z,1010.91
2019-06-13T10:26:57.574Z,1010.89
2019-06-13T10:28:01.227Z,1010.87
2019-06-13T10:28:57.630Z,1010.87
2019-06-13T10:30:00.133Z,1010.9
2019-06-13T10:31:00.982Z,1010.87
2019-06-13T10:32:00.807Z,1010.87
2019-06-13T10:33:00.889Z,1010.89
2019-06-13T10:33:57.773Z,1010.87
2019-06-13T10:34:59.707Z,1010.86
2019-06-13T10:36:00.524Z,1010.86
2019-06-13T10:36:59.679Z,1010.85
2019-06-13T10:37:59.561Z,1010.85
2019-06-13T10:38:57.913Z,1010.88
2019-06-13T10:40:00.464Z,1010.92
2019-06-13T10:40:59.318Z,1010.89
2019-06-13T10:41:57.997Z,1010.89
2019-06-13T10:43:59.090Z,1010.93
2019-06-13T10:45:00.250Z,1010.91
2019-06-13T10:45:59.456Z,1010.91
2019-06-13T10:46:59.904Z,1010.88
2019-06-13T10:47:58.168Z,1010.89
2019-06-13T10:48:59.593Z,1010.87
2019-06-13T10:49:59.245Z,1010.84
2019-06-13T10:50:59.703Z,1010.83
2019-06-13T10:51:58.280Z,1010.85
2019-06-13T10:53:02.183Z,1010.89
2019-06-13T10:53:59.690Z,1010.89
2019-06-13T10:55:00.331Z,1010.88
2019-06-13T10:56:00.122Z,1010.82
2019-06-13T10:57:02.375Z,1010.82
2019-06-13T10:57:59.343Z,1010.76
2019-06-13T10:59:59.885Z,1010.75
2019-06-13T11:01:00.727Z,1010.77
2019-06-13T11:02:00.819Z,1010.74
2019-06-13T11:03:03.334Z,1010.73
2019-06-13T11:04:02.595Z,1010.79
2019-06-13T11:04:59.765Z,1010.81
2019-06-13T11:05:59.680Z,1010.83
2019-06-13T11:06:59.841Z,1010.86
2019-06-13T11:07:59.738Z,1010.82
2019-06-13T11:08:58.751Z,1010.88
2019-06-13T11:10:02.970Z,1010.89
2019-06-13T11:11:00.497Z,1010.92
2019-06-13T11:12:02.250Z,1010.91
2019-06-13T11:13:16.080Z,1010.9
2019-06-13T11:13:59.558Z,1010.92
2019-06-13T11:16:00.960Z,1010.93
2019-06-13T11:17:10.159Z,1010.93
2019-06-13T11:17:59.886Z,1010.91
2019-06-13T11:18:59.723Z,1010.87
2019-06-13T11:19:59.329Z,1010.86
2019-06-13T11:21:00.485Z,1010.86
2019-06-13T11:22:00.228Z,1010.84
2019-06-13T11:23:00.683Z,1010.85
2019-06-13T11:24:00.259Z,1010.84
2019-06-13T11:24:59.189Z,1010.88
2019-06-13T11:26:01.861Z,1010.84
2019-06-13T11:27:00.492Z,1010.86
2019-06-13T11:28:00.049Z,1010.84
2019-06-13T11:28:59.760Z,1010.91
2019-06-13T11:30:00.645Z,1010.86
2019-06-13T11:31:59.377Z,1010.8
2019-06-13T11:33:02.352Z,1010.8
2019-06-13T11:33:59.990Z,1010.82
2019-06-13T11:35:00.910Z,1010.82
2019-06-13T11:35:59.893Z,1010.85
2019-06-13T11:37:00.418Z,1010.86
2019-06-13T11:38:00.261Z,1010.87
2019-06-13T11:39:00.339Z,1010.83
2019-06-13T11:39:59.593Z,1010.81
2019-06-13T11:40:59.617Z,1010.81
2019-06-13T11:42:04.709Z,1010.8
2019-06-13T11:43:00.071Z,1010.85
2019-06-13T11:44:00.005Z,1010.78
2019-06-13T11:45:01.467Z,1010.79
2019-06-13T11:47:00.235Z,1010.8
2019-06-13T11:48:00.201Z,1010.78
2019-06-13T11:49:00.606Z,1010.78
2019-06-13T11:49:59.861Z,1010.74
2019-06-13T11:51:02.045Z,1010.74
2019-06-13T11:52:01.530Z,1010.72
2019-06-13T11:53:01.604Z,1010.7
2019-06-13T11:54:01.762Z,1010.7
2019-06-13T11:54:59.992Z,1010.73
2019-06-13T11:56:00.019Z,1010.71
2019-06-13T11:57:00.491Z,1010.67
2019-06-13T11:58:00.149Z,1010.73
2019-06-13T11:59:00.098Z,1010.68
2019-06-13T12:00:00.168Z,1010.66
2019-06-13T12:01:00.555Z,1010.72
2019-06-13T12:02:01.167Z,1010.66
2019-06-13T12:03:01.046Z,1010.66
2019-06-13T12:04:00.234Z,1010.69
2019-06-13T12:05:00.444Z,1010.72
2019-06-13T12:06:00.843Z,1010.69
2019-06-13T12:07:04.501Z,1010.65
2019-06-13T12:08:00.349Z,1010.66
2019-06-13T12:09:00.365Z,1010.67
2019-06-13T12:10:00.611Z,1010.65
2019-06-13T12:11:00.450Z,1010.66
2019-06-13T12:12:00.443Z,1010.66
2019-06-13T12:13:00.651Z,1010.66
2019-06-13T12:14:09.576Z,1010.62
2019-06-13T12:15:00.523Z,1010.62
2019-06-13T12:16:00.549Z,1010.62
2019-06-13T12:17:00.607Z,1010.61
2019-06-13T12:19:00.628Z,1010.59
2019-06-13T12:20:00.828Z,1010.62
2019-06-13T12:21:01.267Z,1010.63
2019-06-13T12:22:00.708Z,1010.6
2019-06-13T12:23:00.735Z,1010.55
2019-06-13T12:24:00.762Z,1010.6
2019-06-13T12:25:00.958Z,1010.61
2019-06-13T12:26:01.390Z,1010.62
2019-06-13T12:27:00.840Z,1010.59
2019-06-13T12:28:00.865Z,1010.62
2019-06-13T12:29:10.598Z,1010.63
2019-06-13T12:30:08.602Z,1010.64
2019-06-13T12:31:01.509Z,1010.65
2019-06-13T12:32:00.976Z,1010.68
2019-06-13T12:33:02.953Z,1010.67
2019-06-13T12:35:01.055Z,1010.62
2019-06-13T12:36:01.166Z,1010.61
2019-06-13T12:37:01.111Z,1010.64
2019-06-13T12:38:01.133Z,1010.61
2019-06-13T12:39:01.320Z,1010.58
2019-06-13T12:40:01.187Z,1010.57
2019-06-13T12:41:01.293Z,1010.54
2019-06-13T12:42:01.243Z,1010.52
2019-06-13T12:43:01.267Z,1010.53
2019-06-13T12:44:17.621Z,1010.54
2019-06-13T12:45:01.324Z,1010.54
2019-06-13T12:46:01.347Z,1010.56
2019-06-13T12:47:01.627Z,1010.55
2019-06-13T12:48:01.400Z,1010.55
2019-06-13T12:49:01.427Z,1010.55
2019-06-13T12:51:01.480Z,1010.55
2019-06-13T12:52:01.508Z,1010.58
2019-06-13T12:53:02.145Z,1010.55
2019-06-13T12:54:01.560Z,1010.55
2019-06-13T12:55:01.589Z,1010.57